sensor_id;sensor_type;location;lat;lon;timestamp;pressure;altitude;pressure_sealevel;temperature;humidity
27210;BME280;14721;42.668;23.386;2023-07-13T00:00:30;95485.53;;;23.44;57.16
27210;BME280;14721;42.668;23.386;2023-07-13T00:02:57;95486.28;;;23.52;57.01
27210;BME280;14721;42.668;23.386;2023-07-13T00:05:23;95485.44;;;23.52;57.11
27210;BME280;14721;42.668;23.386;2023-07-13T00:07:50;95487.22;;;23.45;58.02
27210;BME280;14721;42.668;23.386;2023-07-13T00:10:16;95487.31;;;23.51;57.80
27210;BME280;14721;42.668;23.386;2023-07-13T00:12:43;95484.97;;;23.48;57.75
27210;BME280;14721;42.668;23.386;2023-07-13T00:15:27;95488.34;;;23.50;58.41
27210;BME280;14721;42.668;23.386;2023-07-13T00:17:55;95485.44;;;23.52;58.40
27210;BME280;14721;42.668;23.386;2023-07-13T00:20:22;95486.06;;;23.54;57.72
27210;BME280;14721;42.668;23.386;2023-07-13T00:22:51;95480.44;;;23.55;57.68
27210;BME280;14721;42.668;23.386;2023-07-13T00:25:19;95469.91;;;23.52;57.30
27210;BME280;14721;42.668;23.386;2023-07-13T00:27:47;95471.31;;;23.48;57.72
27210;BME280;14721;42.668;23.386;2023-07-13T00:30:14;95484.13;;;23.33;57.75
27210;BME280;14721;42.668;23.386;2023-07-13T00:32:40;95467.66;;;23.27;58.91
27210;BME280;14721;42.668;23.386;2023-07-13T00:35:07;95462.00;;;23.28;57.94
27210;BME280;14721;42.668;23.386;2023-07-13T00:37:33;95463.56;;;23.23;59.25
27210;BME280;14721;42.668;23.386;2023-07-13T00:40:02;95464.63;;;23.22;59.53
27210;BME280;14721;42.668;23.386;2023-07-13T00:42:28;95466.69;;;23.20;59.44
27210;BME280;14721;42.668;23.386;2023-07-13T00:47:52;95473.19;;;23.19;59.49
27210;BME280;14721;42.668;23.386;2023-07-13T00:50:18;95459.72;;;23.03;59.39
27210;BME280;14721;42.668;23.386;2023-07-13T00:52:48;95465.75;;;22.98;59.76
27210;BME280;14721;42.668;23.386;2023-07-13T00:55:15;95478.44;;;23.06;60.00
27210;BME280;14721;42.668;23.386;2023-07-13T00:57:43;95450.03;;;23.00;60.55
27210;BME280;14721;42.668;23.386;2023-07-13T01:00:10;95464.63;;;23.07;61.44
27210;BME280;14721;42.668;23.386;2023-07-13T01:02:39;95469.59;;;23.04;61.95
27210;BME280;14721;42.668;23.386;2023-07-13T01:05:21;95463.19;;;22.97;62.14
27210;BME280;14721;42.668;23.386;2023-07-13T01:07:49;95459.03;;;22.86;62.76
27210;BME280;14721;42.668;23.386;2023-07-13T01:10:16;95461.84;;;22.78;63.46
27210;BME280;14721;42.668;23.386;2023-07-13T01:12:41;95460.16;;;22.77;63.19
27210;BME280;14721;42.668;23.386;2023-07-13T01:18:09;95472.69;;;22.64;63.90
27210;BME280;14721;42.668;23.386;2023-07-13T01:20:36;95469.97;;;22.64;64.39
27210;BME280;14721;42.668;23.386;2023-07-13T01:23:10;95464.34;;;22.65;63.83
27210;BME280;14721;42.668;23.386;2023-07-13T01:25:37;95457.91;;;22.58;64.52
27210;BME280;14721;42.668;23.386;2023-07-13T01:28:08;95456.63;;;22.46;63.79
27210;BME280;14721;42.668;23.386;2023-07-13T01:30:35;95468.56;;;22.45;64.31
27210;BME280;14721;42.668;23.386;2023-07-13T01:33:03;95461.66;;;22.35;65.09
27210;BME280;14721;42.668;23.386;2023-07-13T01:35:29;95457.16;;;22.19;65.65
27210;BME280;14721;42.668;23.386;2023-07-13T01:37:55;95469.88;;;22.26;65.02
27210;BME280;14721;42.668;23.386;2023-07-13T01:40:22;95460.88;;;22.26;64.78
27210;BME280;14721;42.668;23.386;2023-07-13T01:42:48;95464.38;;;22.35;64.38
27210;BME280;14721;42.668;23.386;2023-07-13T01:45:14;95460.81;;;22.34;64.27
27210;BME280;14721;42.668;23.386;2023-07-13T01:47:40;95465.06;;;22.37;64.99
27210;BME280;14721;42.668;23.386;2023-07-13T01:50:05;95458.75;;;22.36;64.35
27210;BME280;14721;42.668;23.386;2023-07-13T01:52:31;95448.06;;;22.35;64.99
27210;BME280;14721;42.668;23.386;2023-07-13T01:54:56;95451.81;;;22.34;64.35
27210;BME280;14721;42.668;23.386;2023-07-13T01:57:22;95452.47;;;22.36;63.98
27210;BME280;14721;42.668;23.386;2023-07-13T01:59:48;95450.22;;;22.39;63.95
27210;BME280;14721;42.668;23.386;2023-07-13T02:02:14;95459.34;;;22.46;64.79
27210;BME280;14721;42.668;23.386;2023-07-13T02:04:40;95459.34;;;22.46;64.75
27210;BME280;14721;42.668;23.386;2023-07-13T02:07:07;95474.72;;;22.39;64.87
27210;BME280;14721;42.668;23.386;2023-07-13T02:09:33;95465.06;;;22.37;65.15
27210;BME280;14721;42.668;23.386;2023-07-13T02:11:58;95465.88;;;22.37;65.04
27210;BME280;14721;42.668;23.386;2023-07-13T02:14:24;95473.59;;;22.34;65.59
27210;BME280;14721;42.668;23.386;2023-07-13T02:16:49;95469.88;;;22.26;66.05
27210;BME280;14721;42.668;23.386;2023-07-13T02:19:15;95465.34;;;22.19;66.17
27210;BME280;14721;42.668;23.386;2023-07-13T02:21:40;95472.78;;;22.25;66.17
27210;BME280;14721;42.668;23.386;2023-07-13T02:24:06;95467.78;;;22.14;66.99
27210;BME280;14721;42.668;23.386;2023-07-13T02:26:32;95465.94;;;22.06;67.20
27210;BME280;14721;42.668;23.386;2023-07-13T02:28:57;95480.22;;;22.08;67.61
27210;BME280;14721;42.668;23.386;2023-07-13T02:31:23;95480.88;;;22.10;66.98
27210;BME280;14721;42.668;23.386;2023-07-13T02:33:49;95467.69;;;21.99;67.22
27210;BME280;14721;42.668;23.386;2023-07-13T02:36:14;95477.31;;;22.10;66.86
27210;BME280;14721;42.668;23.386;2023-07-13T02:38:41;95486.50;;;22.09;66.70
27210;BME280;14721;42.668;23.386;2023-07-13T02:41:08;95479.56;;;22.06;66.95
27210;BME280;14721;42.668;23.386;2023-07-13T02:43:35;95484.31;;;22.04;67.67
27210;BME280;14721;42.668;23.386;2023-07-13T02:46:01;95476.84;;;22.06;67.72
27210;BME280;14721;42.668;23.386;2023-07-13T02:48:33;95473.25;;;22.06;66.91
27210;BME280;14721;42.668;23.386;2023-07-13T02:50:59;95471.06;;;22.01;67.40
27210;BME280;14721;42.668;23.386;2023-07-13T02:53:25;95481.59;;;22.04;66.51
27210;BME280;14721;42.668;23.386;2023-07-13T02:55:50;95462.59;;;21.96;66.72
27210;BME280;14721;42.668;23.386;2023-07-13T02:58:16;95489.75;;;22.04;66.48
27210;BME280;14721;42.668;23.386;2023-07-13T03:00:46;95480.00;;;21.87;66.63
27210;BME280;14721;42.668;23.386;2023-07-13T03:03:13;95474.09;;;21.68;67.45
27210;BME280;14721;42.668;23.386;2023-07-13T03:05:40;95475.00;;;21.60;68.82
27210;BME280;14721;42.668;23.386;2023-07-13T03:08:07;95487.72;;;21.76;68.54
27210;BME280;14721;42.668;23.386;2023-07-13T03:10:33;95482.78;;;21.71;68.90
27210;BME280;14721;42.668;23.386;2023-07-13T03:12:59;95493.13;;;21.84;68.76
27210;BME280;14721;42.668;23.386;2023-07-13T03:15:24;95492.78;;;21.87;68.67
27210;BME280;14721;42.668;23.386;2023-07-13T03:17:50;95495.25;;;21.96;68.74
27210;BME280;14721;42.668;23.386;2023-07-13T03:20:15;95496.34;;;22.10;67.86
27210;BME280;14721;42.668;23.386;2023-07-13T03:22:41;95501.00;;;22.32;66.89
27210;BME280;14721;42.668;23.386;2023-07-13T03:25:07;95505.56;;;22.62;65.78
27210;BME280;14721;42.668;23.386;2023-07-13T03:27:33;95486.84;;;22.82;65.34
27210;BME280;14721;42.668;23.386;2023-07-13T03:29:58;95488.88;;;23.17;64.32
27210;BME280;14721;42.668;23.386;2023-07-13T03:32:24;95502.75;;;23.59;62.29
27210;BME280;14721;42.668;23.386;2023-07-13T03:34:50;95493.69;;;24.02;61.24
27210;BME280;14721;42.668;23.386;2023-07-13T03:37:15;95502.22;;;24.49;60.53
27210;BME280;14721;42.668;23.386;2023-07-13T03:39:41;95495.53;;;24.94;58.80
27210;BME280;14721;42.668;23.386;2023-07-13T03:42:07;95500.94;;;25.36;57.42
27210;BME280;14721;42.668;23.386;2023-07-13T03:44:33;95493.28;;;25.52;55.66
27210;BME280;14721;42.668;23.386;2023-07-13T03:46:58;95489.25;;;25.83;55.47
27210;BME280;14721;42.668;23.386;2023-07-13T03:49:24;95479.97;;;26.18;54.24
27210;BME280;14721;42.668;23.386;2023-07-13T03:51:49;95485.97;;;26.54;52.35
27210;BME280;14721;42.668;23.386;2023-07-13T03:54:15;95490.50;;;27.00;51.30
27210;BME280;14721;42.668;23.386;2023-07-13T03:56:40;95487.78;;;27.26;51.19
27210;BME280;14721;42.668;23.386;2023-07-13T03:59:06;95495.31;;;27.70;50.10
27210;BME280;14721;42.668;23.386;2023-07-13T04:01:32;95487.72;;;27.92;49.23
27210;BME280;14721;42.668;23.386;2023-07-13T04:03:57;95484.97;;;28.36;48.96
27210;BME280;14721;42.668;23.386;2023-07-13T04:06:26;95493.56;;;28.59;47.09
27210;BME280;14721;42.668;23.386;2023-07-13T04:08:54;95498.38;;;29.07;45.49
27210;BME280;14721;42.668;23.386;2023-07-13T04:11:23;95483.22;;;29.23;45.65
27210;BME280;14721;42.668;23.386;2023-07-13T04:13:49;95483.03;;;29.43;44.54
27210;BME280;14721;42.668;23.386;2023-07-13T04:16:16;95490.13;;;29.57;44.69
27210;BME280;14721;42.668;23.386;2023-07-13T04:18:43;95499.44;;;29.80;44.20
27210;BME280;14721;42.668;23.386;2023-07-13T04:21:09;95495.81;;;30.22;42.96
27210;BME280;14721;42.668;23.386;2023-07-13T04:23:37;95499.59;;;30.28;43.30
27210;BME280;14721;42.668;23.386;2023-07-13T04:26:04;95508.34;;;30.72;41.87
27210;BME280;14721;42.668;23.386;2023-07-13T04:28:29;95503.00;;;31.07;41.00
27210;BME280;14721;42.668;23.386;2023-07-13T04:30:56;95498.69;;;31.23;41.23
27210;BME280;14721;42.668;23.386;2023-07-13T04:33:22;95497.47;;;31.07;41.66
27210;BME280;14721;42.668;23.386;2023-07-13T04:35:53;95506.38;;;30.91;41.56
27210;BME280;14721;42.668;23.386;2023-07-13T04:38:22;95505.88;;;31.12;40.58
27210;BME280;14721;42.668;23.386;2023-07-13T04:40:47;95511.91;;;31.73;38.70
27210;BME280;14721;42.668;23.386;2023-07-13T04:43:14;95510.81;;;32.32;38.25
27210;BME280;14721;42.668;23.386;2023-07-13T04:45:39;95508.50;;;32.63;38.19
27210;BME280;14721;42.668;23.386;2023-07-13T04:48:05;95506.38;;;32.82;38.24
27210;BME280;14721;42.668;23.386;2023-07-13T04:50:31;95521.56;;;33.08;37.50
27210;BME280;14721;42.668;23.386;2023-07-13T04:52:56;95510.91;;;33.28;37.39
27210;BME280;14721;42.668;23.386;2023-07-13T04:55:22;95525.06;;;33.59;37.25
27210;BME280;14721;42.668;23.386;2023-07-13T04:57:47;95517.16;;;33.84;37.18
27210;BME280;14721;42.668;23.386;2023-07-13T05:00:14;95518.16;;;33.45;37.92
27210;BME280;14721;42.668;23.386;2023-07-13T05:02:43;95523.56;;;33.52;38.47
27210;BME280;14721;42.668;23.386;2023-07-13T05:05:09;95530.94;;;33.63;37.44
27210;BME280;14721;42.668;23.386;2023-07-13T05:07:35;95522.09;;;33.82;37.30
27210;BME280;14721;42.668;23.386;2023-07-13T05:10:00;95531.03;;;33.68;37.41
27210;BME280;14721;42.668;23.386;2023-07-13T05:12:26;95530.78;;;34.02;36.51
27210;BME280;14721;42.668;23.386;2023-07-13T05:14:52;95520.09;;;33.17;38.03
27210;BME280;14721;42.668;23.386;2023-07-13T05:17:17;95538.00;;;33.70;37.37
27210;BME280;14721;42.668;23.386;2023-07-13T05:19:43;95523.59;;;32.84;38.94
27210;BME280;14721;42.668;23.386;2023-07-13T05:22:09;95543.34;;;33.44;37.64
27210;BME280;14721;42.668;23.386;2023-07-13T05:24:35;95537.81;;;33.77;36.83
27210;BME280;14721;42.668;23.386;2023-07-13T05:27:01;95538.06;;;33.59;37.42
27210;BME280;14721;42.668;23.386;2023-07-13T05:29:26;95540.28;;;34.06;36.84
27210;BME280;14721;42.668;23.386;2023-07-13T05:31:52;95535.84;;;33.89;37.02
27210;BME280;14721;42.668;23.386;2023-07-13T05:34:17;95530.53;;;34.04;36.28
27210;BME280;14721;42.668;23.386;2023-07-13T05:36:43;95537.16;;;33.86;36.86
27210;BME280;14721;42.668;23.386;2023-07-13T05:39:08;95533.94;;;33.45;36.80
27210;BME280;14721;42.668;23.386;2023-07-13T05:41:35;95538.75;;;32.82;38.11
27210;BME280;14721;42.668;23.386;2023-07-13T05:44:00;95546.66;;;32.27;39.48
27210;BME280;14721;42.668;23.386;2023-07-13T05:46:26;95541.72;;;32.17;40.13
27210;BME280;14721;42.668;23.386;2023-07-13T05:48:52;95540.75;;;32.23;40.09
27210;BME280;14721;42.668;23.386;2023-07-13T05:51:17;95537.88;;;31.95;41.17
27210;BME280;14721;42.668;23.386;2023-07-13T05:53:43;95543.44;;;32.18;40.26
27210;BME280;14721;42.668;23.386;2023-07-13T05:56:08;95536.94;;;32.24;40.27
27210;BME280;14721;42.668;23.386;2023-07-13T05:58:34;95541.00;;;32.10;40.92
27210;BME280;14721;42.668;23.386;2023-07-13T06:01:10;95540.59;;;32.64;40.65
27210;BME280;14721;42.668;23.386;2023-07-13T06:03:36;95540.13;;;32.67;38.72
27210;BME280;14721;42.668;23.386;2023-07-13T06:06:06;95537.72;;;32.59;39.58
27210;BME280;14721;42.668;23.386;2023-07-13T06:08:33;95527.81;;;32.75;39.41
27210;BME280;14721;42.668;23.386;2023-07-13T06:11:23;95524.94;;;33.10;39.20
27210;BME280;14721;42.668;23.386;2023-07-13T06:13:48;95526.59;;;33.22;38.19
27210;BME280;14721;42.668;23.386;2023-07-13T06:16:14;95523.72;;;32.78;39.54
27210;BME280;14721;42.668;23.386;2023-07-13T06:18:40;95535.28;;;33.14;39.03
27210;BME280;14721;42.668;23.386;2023-07-13T06:21:17;95539.22;;;33.18;39.83
27210;BME280;14721;42.668;23.386;2023-07-13T06:23:43;95530.00;;;33.41;39.52
27210;BME280;14721;42.668;23.386;2023-07-13T06:26:10;95518.69;;;33.31;37.81
27210;BME280;14721;42.668;23.386;2023-07-13T06:28:36;95532.53;;;33.75;37.57
27210;BME280;14721;42.668;23.386;2023-07-13T06:31:05;95528.38;;;33.45;38.85
27210;BME280;14721;42.668;23.386;2023-07-13T06:33:31;95529.41;;;33.72;37.21
27210;BME280;14721;42.668;23.386;2023-07-13T06:35:56;95544.53;;;33.81;37.73
27210;BME280;14721;42.668;23.386;2023-07-13T06:38:22;95529.94;;;34.02;36.67
27210;BME280;14721;42.668;23.386;2023-07-13T06:40:47;95527.97;;;34.35;35.02
27210;BME280;14721;42.668;23.386;2023-07-13T06:43:12;95528.66;;;34.26;35.07
27210;BME280;14721;42.668;23.386;2023-07-13T06:45:46;95537.00;;;33.93;36.16
27210;BME280;14721;42.668;23.386;2023-07-13T06:48:15;95534.72;;;34.06;35.71
27210;BME280;14721;42.668;23.386;2023-07-13T06:50:41;95498.34;;;33.86;36.13
27210;BME280;14721;42.668;23.386;2023-07-13T06:53:07;95515.66;;;34.10;35.87
27210;BME280;14721;42.668;23.386;2023-07-13T06:55:32;95522.22;;;34.04;36.28
27210;BME280;14721;42.668;23.386;2023-07-13T06:57:58;95526.63;;;34.21;35.04
27210;BME280;14721;42.668;23.386;2023-07-13T07:00:23;95517.06;;;34.12;35.12
27210;BME280;14721;42.668;23.386;2023-07-13T07:02:48;95518.94;;;34.62;35.90
27210;BME280;14721;42.668;23.386;2023-07-13T07:05:14;95519.41;;;34.75;36.28
27210;BME280;14721;42.668;23.386;2023-07-13T07:07:39;95521.91;;;34.55;36.30
27210;BME280;14721;42.668;23.386;2023-07-13T07:10:05;95510.41;;;34.68;36.56
27210;BME280;14721;42.668;23.386;2023-07-13T07:12:31;95529.03;;;34.89;37.28
27210;BME280;14721;42.668;23.386;2023-07-13T07:14:57;95523.03;;;34.97;36.31
27210;BME280;14721;42.668;23.386;2023-07-13T07:17:22;95503.13;;;35.32;34.62
27210;BME280;14721;42.668;23.386;2023-07-13T07:19:48;95524.06;;;35.39;35.11
27210;BME280;14721;42.668;23.386;2023-07-13T07:22:13;95522.59;;;35.10;36.05
27210;BME280;14721;42.668;23.386;2023-07-13T07:24:39;95519.72;;;35.27;35.15
27210;BME280;14721;42.668;23.386;2023-07-13T07:27:04;95512.53;;;35.04;36.14
27210;BME280;14721;42.668;23.386;2023-07-13T07:29:30;95525.03;;;35.28;35.69
27210;BME280;14721;42.668;23.386;2023-07-13T07:31:55;95499.19;;;35.28;35.85
27210;BME280;14721;42.668;23.386;2023-07-13T07:34:21;95520.66;;;35.59;36.19
27210;BME280;14721;42.668;23.386;2023-07-13T07:36:46;95512.97;;;35.71;35.01
27210;BME280;14721;42.668;23.386;2023-07-13T07:39:12;95509.53;;;35.59;34.32
27210;BME280;14721;42.668;23.386;2023-07-13T07:41:37;95501.81;;;35.66;33.82
27210;BME280;14721;42.668;23.386;2023-07-13T07:44:03;95500.91;;;35.87;33.62
27210;BME280;14721;42.668;23.386;2023-07-13T07:46:29;95499.03;;;35.92;32.81
27210;BME280;14721;42.668;23.386;2023-07-13T07:48:55;95499.00;;;36.29;31.22
27210;BME280;14721;42.668;23.386;2023-07-13T07:51:21;95492.19;;;36.15;32.57
27210;BME280;14721;42.668;23.386;2023-07-13T07:53:47;95479.88;;;36.43;32.70
27210;BME280;14721;42.668;23.386;2023-07-13T07:56:13;95492.81;;;36.64;32.11
27210;BME280;14721;42.668;23.386;2023-07-13T07:58:41;95489.84;;;36.80;32.16
27210;BME280;14721;42.668;23.386;2023-07-13T08:01:07;95488.91;;;36.65;33.10
27210;BME280;14721;42.668;23.386;2023-07-13T08:03:33;95493.91;;;36.63;33.26
27210;BME280;14721;42.668;23.386;2023-07-13T08:05:58;95477.78;;;36.70;32.23
27210;BME280;14721;42.668;23.386;2023-07-13T08:08:24;95478.88;;;36.64;33.60
27210;BME280;14721;42.668;23.386;2023-07-13T08:10:50;95475.00;;;36.70;33.59
27210;BME280;14721;42.668;23.386;2023-07-13T08:13:16;95469.75;;;36.73;30.98
27210;BME280;14721;42.668;23.386;2023-07-13T08:18:27;95454.25;;;37.02;32.12
27210;BME280;14721;42.668;23.386;2023-07-13T08:20:55;95459.56;;;36.99;32.36
27210;BME280;14721;42.668;23.386;2023-07-13T08:23:25;95466.56;;;37.16;30.32
27210;BME280;14721;42.668;23.386;2023-07-13T08:25:54;95468.28;;;37.22;29.91
27210;BME280;14721;42.668;23.386;2023-07-13T08:28:23;95465.06;;;36.89;30.21
27210;BME280;14721;42.668;23.386;2023-07-13T08:30:48;95459.97;;;36.71;31.11
27210;BME280;14721;42.668;23.386;2023-07-13T08:33:21;95452.00;;;36.89;30.68
27210;BME280;14721;42.668;23.386;2023-07-13T08:35:49;95451.63;;;36.66;31.86
27210;BME280;14721;42.668;23.386;2023-07-13T08:38:15;95439.59;;;36.55;30.92
27210;BME280;14721;42.668;23.386;2023-07-13T08:40:42;95447.34;;;36.43;31.69
27210;BME280;14721;42.668;23.386;2023-07-13T08:43:20;95439.56;;;37.22;30.75
27210;BME280;14721;42.668;23.386;2023-07-13T08:46:14;95451.34;;;37.74;30.12
27210;BME280;14721;42.668;23.386;2023-07-13T08:48:45;95448.25;;;38.01;29.97
27210;BME280;14721;42.668;23.386;2023-07-13T08:53:50;95434.22;;;38.51;28.57
27210;BME280;14721;42.668;23.386;2023-07-13T08:56:21;95423.97;;;38.31;28.38
27210;BME280;14721;42.668;23.386;2023-07-13T08:58:50;95447.13;;;38.07;29.06
27210;BME280;14721;42.668;23.386;2023-07-13T09:01:32;95447.91;;;38.42;28.67
27210;BME280;14721;42.668;23.386;2023-07-13T09:06:58;95454.59;;;38.51;28.55
27210;BME280;14721;42.668;23.386;2023-07-13T09:14:54;95466.59;;;38.57;28.96
27210;BME280;14721;42.668;23.386;2023-07-13T09:17:25;95469.88;;;38.79;28.34
27210;BME280;14721;42.668;23.386;2023-07-13T09:20:00;95464.94;;;38.46;28.53
27210;BME280;14721;42.668;23.386;2023-07-13T09:22:31;95462.94;;;38.66;28.04
27210;BME280;14721;42.668;23.386;2023-07-13T09:27:42;95463.91;;;37.92;29.87
27210;BME280;14721;42.668;23.386;2023-07-13T09:32:47;95463.88;;;38.07;30.67
27210;BME280;14721;42.668;23.386;2023-07-13T09:35:17;95444.91;;;38.09;30.84
27210;BME280;14721;42.668;23.386;2023-07-13T09:37:45;95456.88;;;38.09;29.46
27210;BME280;14721;42.668;23.386;2023-07-13T09:40:25;95460.81;;;37.98;29.90
27210;BME280;14721;42.668;23.386;2023-07-13T09:42:54;95462.75;;;37.52;29.70
27210;BME280;14721;42.668;23.386;2023-07-13T09:45:29;95455.25;;;37.68;30.55
27210;BME280;14721;42.668;23.386;2023-07-13T09:48:00;95458.03;;;37.73;30.67
27210;BME280;14721;42.668;23.386;2023-07-13T09:50:28;95448.56;;;37.69;30.44
27210;BME280;14721;42.668;23.386;2023-07-13T09:52:54;95439.91;;;37.60;31.04
27210;BME280;14721;42.668;23.386;2023-07-13T09:55:31;95425.66;;;37.32;30.84
27210;BME280;14721;42.668;23.386;2023-07-13T09:57:57;95422.47;;;36.83;31.93
27210;BME280;14721;42.668;23.386;2023-07-13T10:00:26;95429.47;;;36.96;31.22
27210;BME280;14721;42.668;23.386;2023-07-13T10:03:04;95418.03;;;36.92;31.91
27210;BME280;14721;42.668;23.386;2023-07-13T10:05:50;95417.72;;;36.84;32.11
27210;BME280;14721;42.668;23.386;2023-07-13T10:10:45;95416.22;;;36.66;33.27
27210;BME280;14721;42.668;23.386;2023-07-13T10:13:25;95409.41;;;36.32;31.97
27210;BME280;14721;42.668;23.386;2023-07-13T10:15:51;95404.19;;;35.99;32.24
27210;BME280;14721;42.668;23.386;2023-07-13T10:18:17;95410.84;;;35.93;32.28
27210;BME280;14721;42.668;23.386;2023-07-13T10:20:44;95409.94;;;35.82;32.63
27210;BME280;14721;42.668;23.386;2023-07-13T10:23:15;95407.78;;;35.89;32.12
27210;BME280;14721;42.668;23.386;2023-07-13T10:25:45;95413.16;;;36.11;31.74
27210;BME280;14721;42.668;23.386;2023-07-13T10:28:31;95403.41;;;36.03;32.17
27210;BME280;14721;42.668;23.386;2023-07-13T10:30:59;95405.09;;;36.10;32.86
27210;BME280;14721;42.668;23.386;2023-07-13T10:33:26;95397.06;;;36.18;32.07
27210;BME280;14721;42.668;23.386;2023-07-13T10:36:05;95380.84;;;36.00;32.37
27210;BME280;14721;42.668;23.386;2023-07-13T10:38:38;95392.06;;;36.20;31.88
27210;BME280;14721;42.668;23.386;2023-07-13T10:41:06;95372.03;;;36.13;31.98
27210;BME280;14721;42.668;23.386;2023-07-13T10:43:40;95387.38;;;36.26;32.42
27210;BME280;14721;42.668;23.386;2023-07-13T10:46:11;95382.31;;;36.13;32.00
27210;BME280;14721;42.668;23.386;2023-07-13T10:48:39;95360.84;;;36.08;31.70
27210;BME280;14721;42.668;23.386;2023-07-13T10:51:06;95368.44;;;36.18;32.41
27210;BME280;14721;42.668;23.386;2023-07-13T10:53:35;95360.94;;;36.23;31.14
27210;BME280;14721;42.668;23.386;2023-07-13T11:03:29;95353.03;;;36.00;26.41
27210;BME280;14721;42.668;23.386;2023-07-13T11:06:09;95347.94;;;35.82;25.84
27210;BME280;14721;42.668;23.386;2023-07-13T11:18:48;95331.03;;;35.93;27.33
27210;BME280;14721;42.668;23.386;2023-07-13T11:23:45;95335.75;;;35.88;25.43
27210;BME280;14721;42.668;23.386;2023-07-13T11:26:39;95326.88;;;35.96;24.31
27210;BME280;14721;42.668;23.386;2023-07-13T11:31:43;95319.63;;;36.00;24.56
27210;BME280;14721;42.668;23.386;2023-07-13T11:34:18;95288.78;;;35.96;25.17
27210;BME280;14721;42.668;23.386;2023-07-13T11:36:47;95308.31;;;36.17;26.03
27210;BME280;14721;42.668;23.386;2023-07-13T11:39:23;95311.72;;;36.29;25.40
27210;BME280;14721;42.668;23.386;2023-07-13T11:41:54;95302.84;;;36.37;25.53
27210;BME280;14721;42.668;23.386;2023-07-13T11:44:23;95306.75;;;36.36;25.18
27210;BME280;14721;42.668;23.386;2023-07-13T11:46:52;95306.19;;;36.44;25.53
27210;BME280;14721;42.668;23.386;2023-07-13T11:49:20;95309.25;;;36.37;25.18
27210;BME280;14721;42.668;23.386;2023-07-13T11:51:46;95289.94;;;36.16;24.63
27210;BME280;14721;42.668;23.386;2023-07-13T11:54:24;95296.09;;;36.18;25.05
27210;BME280;14721;42.668;23.386;2023-07-13T11:56:51;95296.91;;;36.18;25.78
27210;BME280;14721;42.668;23.386;2023-07-13T11:59:18;95293.78;;;36.04;25.77
27210;BME280;14721;42.668;23.386;2023-07-13T12:01:46;95299.91;;;36.01;26.26
27210;BME280;14721;42.668;23.386;2023-07-13T12:04:29;95290.75;;;36.06;26.02
27210;BME280;14721;42.668;23.386;2023-07-13T12:07:27;95280.47;;;36.07;26.01
27210;BME280;14721;42.668;23.386;2023-07-13T12:09:53;95283.81;;;36.09;26.31
27210;BME280;14721;42.668;23.386;2023-07-13T12:12:21;95274.34;;;36.10;26.63
27210;BME280;14721;42.668;23.386;2023-07-13T12:14:51;95281.00;;;36.03;27.35
27210;BME280;14721;42.668;23.386;2023-07-13T12:17:21;95274.03;;;35.91;27.63
27210;BME280;14721;42.668;23.386;2023-07-13T12:19:53;95268.72;;;35.94;27.57
27210;BME280;14721;42.668;23.386;2023-07-13T12:22:19;95268.19;;;35.92;27.21
27210;BME280;14721;42.668;23.386;2023-07-13T12:24:46;95263.19;;;35.99;26.83
27210;BME280;14721;42.668;23.386;2023-07-13T12:27:20;95256.53;;;36.11;27.11
27210;BME280;14721;42.668;23.386;2023-07-13T12:30:00;95233.44;;;36.05;26.41
27210;BME280;14721;42.668;23.386;2023-07-13T12:32:27;95241.53;;;36.17;25.78
27210;BME280;14721;42.668;23.386;2023-07-13T12:35:16;95236.25;;;36.15;25.16
27210;BME280;14721;42.668;23.386;2023-07-13T12:37:43;95235.44;;;36.20;25.30
27210;BME280;14721;42.668;23.386;2023-07-13T12:40:16;95212.31;;;36.04;26.14
27210;BME280;14721;42.668;23.386;2023-07-13T12:42:46;95231.53;;;36.16;26.53
27210;BME280;14721;42.668;23.386;2023-07-13T12:45:22;95225.69;;;36.07;26.67
27210;BME280;14721;42.668;23.386;2023-07-13T12:47:57;95219.00;;;36.08;27.73
27210;BME280;14721;42.668;23.386;2023-07-13T12:50:37;95228.22;;;36.24;26.53
27210;BME280;14721;42.668;23.386;2023-07-13T12:53:18;95215.75;;;36.31;26.64
27210;BME280;14721;42.668;23.386;2023-07-13T12:55:54;95202.94;;;36.35;27.10
27210;BME280;14721;42.668;23.386;2023-07-13T12:58:38;95210.75;;;36.38;26.64
27210;BME280;14721;42.668;23.386;2023-07-13T13:01:07;95208.25;;;36.47;26.36
27210;BME280;14721;42.668;23.386;2023-07-13T13:03:37;95197.94;;;36.47;26.88
27210;BME280;14721;42.668;23.386;2023-07-13T13:06:24;95185.97;;;36.52;26.91
27210;BME280;14721;42.668;23.386;2023-07-13T13:08:53;95189.63;;;36.67;27.59
27210;BME280;14721;42.668;23.386;2023-07-13T13:11:20;95185.72;;;36.68;27.35
27210;BME280;14721;42.668;23.386;2023-07-13T13:13:46;95171.81;;;36.58;27.57
27210;BME280;14721;42.668;23.386;2023-07-13T13:16:31;95181.81;;;36.44;27.83
27210;BME280;14721;42.668;23.386;2023-07-13T13:19:01;95179.31;;;36.33;29.38
27210;BME280;14721;42.668;23.386;2023-07-13T13:21:30;95188.72;;;36.27;28.78
27210;BME280;14721;42.668;23.386;2023-07-13T13:23:57;95180.13;;;36.28;28.65
27210;BME280;14721;42.668;23.386;2023-07-13T13:26:23;95191.47;;;36.22;28.71
27210;BME280;14721;42.668;23.386;2023-07-13T13:28:51;95194.22;;;36.07;28.97
27210;BME280;14721;42.668;23.386;2023-07-13T13:31:17;95196.19;;;36.11;28.58
27210;BME280;14721;42.668;23.386;2023-07-13T13:33:44;95187.59;;;36.28;28.51
27210;BME280;14721;42.668;23.386;2023-07-13T13:36:22;95183.44;;;36.30;28.40
27210;BME280;14721;42.668;23.386;2023-07-13T13:38:49;95189.22;;;36.14;28.18
27210;BME280;14721;42.668;23.386;2023-07-13T13:41:16;95182.25;;;36.06;28.12
27210;BME280;14721;42.668;23.386;2023-07-13T13:43:42;95162.22;;;35.99;28.77
27210;BME280;14721;42.668;23.386;2023-07-13T13:46:22;95175.88;;;36.11;27.91